Terminal Aerodrome Forecast
Issued by NWS

Home | Current Version | Previous Version | Text Only | Print | Product List | Glossary On
Versions: 1 2 3 4 5 6 7 8 9 10 11 12 13 14 15 16 17 18 19 20 21 22 23 24 25 26 27 28 29 30
000
FTUS46 KEKA 310500
TAFCEC
TAF
KCEC 310526Z 3106/0106 36004KT P6SM SCT250
     FM311100 VRB03KT 4SM BR OVC006
     FM311500 35004KT 4SM BR SCT008
     FM311700 32010KT P6SM SCT200
     FM312100 32013G20KT P6SM SCT200=

USA.gov is the U.S. government's official web portal to all federal, state and local government web resources and services.